Time;durP1;ratioP1;P1;durP2;ratioP2;P2;SDS_P1;SDS_P2;PMS_P1;PMS_P2;Temp;Humidity;BMP_temperature;BMP_pressure;BME280_temperature;BME280_humidity;BME280_pressure;Samples;Min_cycle;Max_cycle;Signal;HPM_P1;HPM_P2
2022/04/06 00:00:52;;;;;;;33.85;18.10;;;9.00;99.90;;;;;;4994258;28;20078;-79
2022/04/06 00:03:18;;;;;;;37.67;21.67;;;9.00;99.90;;;;;;4993072;28;20454;-79
2022/04/06 00:05:44;;;;;;;34.22;20.20;;;9.00;99.90;;;;;;4994173;28;20034;-79
2022/04/06 00:08:10;;;;;;;35.15;21.90;;;9.00;99.90;;;;;;4994015;28;20129;-79
2022/04/06 00:10:36;;;;;;;34.67;20.23;;;9.10;99.90;;;;;;4994258;28;20489;-79
2022/04/06 00:13:02;;;;;;;40.70;21.58;;;9.00;99.90;;;;;;4993874;28;20046;-79
2022/04/06 00:15:28;;;;;;;32.92;21.15;;;9.00;99.90;;;;;;4994220;28;20046;-79
2022/04/06 00:17:53;;;;;;;36.17;22.23;;;9.00;99.90;;;;;;4992893;28;20038;-79
2022/04/06 00:20:19;;;;;;;33.50;21.20;;;9.00;99.90;;;;;;5005918;28;20038;-79
2022/04/06 00:22:45;;;;;;;36.78;24.83;;;9.00;99.90;;;;;;4993795;28;20053;-79
2022/04/06 00:25:11;;;;;;;33.75;22.58;;;9.00;99.90;;;;;;4994008;28;20038;-79
2022/04/06 00:27:37;;;;;;;35.60;22.85;;;9.00;99.90;;;;;;4993419;28;20034;-79
2022/04/06 00:30:04;;;;;;;38.95;24.75;;;9.00;99.90;;;;;;4974857;28;20517;-79
2022/04/06 00:32:29;;;;;;;44.33;24.63;;;9.00;99.90;;;;;;4957421;28;20081;-79
2022/04/06 00:37:40;;;;;;;40.50;24.48;;;9.00;99.90;;;;;;4960396;28;20049;-79
2022/04/06 00:40:08;;;;;;;39.08;24.00;;;8.90;99.90;;;;;;4974130;28;20039;-79
2022/04/06 00:42:34;;;;;;;39.58;23.00;;;9.00;99.90;;;;;;4958182;28;20486;-79
2022/04/06 00:45:00;;;;;;;39.50;24.02;;;9.00;99.90;;;;;;4971007;28;20065;-79
2022/04/06 00:47:26;;;;;;;38.03;23.08;;;9.00;99.90;;;;;;4976105;28;20061;-79
2022/04/06 00:49:52;;;;;;;38.58;24.10;;;9.00;99.90;;;;;;4993311;28;20043;-79
2022/04/06 00:52:19;;;;;;;45.05;24.23;;;9.00;99.90;;;;;;4976713;28;20486;-79
2022/04/06 00:54:46;;;;;;;37.95;21.60;;;8.90;99.90;;;;;;4977313;28;20566;-79
2022/04/06 00:57:13;;;;;;;41.78;23.40;;;8.90;99.90;;;;;;4992846;28;20096;-79
2022/04/06 00:59:41;;;;;;;42.03;23.02;;;8.90;99.90;;;;;;4993451;28;20051;-79
2022/04/06 01:02:07;;;;;;;37.50;21.95;;;9.00;99.90;;;;;;4992812;28;20065;-79
2022/04/06 01:04:33;;;;;;;37.42;20.73;;;8.90;99.90;;;;;;4976368;28;20437;-79
2022/04/06 01:06:59;;;;;;;40.15;21.65;;;9.00;99.90;;;;;;4993031;28;20073;-79
2022/04/06 01:09:26;;;;;;;37.92;21.65;;;9.00;99.90;;;;;;4993288;28;20061;-79
2022/04/06 01:11:52;;;;;;;37.20;20.80;;;8.90;99.90;;;;;;4993308;28;20043;-79
2022/04/06 01:14:21;;;;;;;34.28;20.55;;;8.90;99.90;;;;;;4976653;28;20133;-79
2022/04/06 01:17:02;;;;;;;39.70;19.88;;;8.90;99.90;;;;;;4976928;28;20588;-79
2022/04/06 01:19:32;;;;;;;38.85;20.38;;;9.00;99.90;;;;;;4973300;28;20049;-79
2022/04/06 01:21:58;;;;;;;35.40;18.70;;;9.00;99.90;;;;;;4983109;28;20042;-79
2022/04/06 01:24:24;;;;;;;33.40;19.38;;;9.00;99.90;;;;;;4989754;28;20101;-79
2022/04/06 01:26:50;;;;;;;31.45;17.55;;;9.00;99.90;;;;;;4974031;28;20039;-79
2022/04/06 01:29:15;;;;;;;30.30;17.52;;;9.00;99.90;;;;;;4976516;28;20042;-79
2022/04/06 01:31:41;;;;;;;33.67;17.90;;;9.00;99.90;;;;;;4993157;28;20046;-79
2022/04/06 01:34:07;;;;;;;36.60;18.35;;;9.00;99.90;;;;;;4976276;28;20133;-79
2022/04/06 01:36:32;;;;;;;32.83;17.55;;;9.00;99.90;;;;;;4976878;28;20042;-79
2022/04/06 01:38:58;;;;;;;32.88;17.55;;;9.00;99.90;;;;;;4992573;28;20069;-79
2022/04/06 01:41:33;;;;;;;30.75;17.13;;;9.00;99.90;;;;;;4977241;28;20040;-79
2022/04/06 01:43:58;;;;;;;33.53;17.15;;;9.00;99.90;;;;;;4993174;28;20421;-79
2022/04/06 01:46:24;;;;;;;32.30;16.55;;;9.00;99.90;;;;;;4988804;28;20055;-79
2022/04/06 01:54:22;;;;;;;32.20;16.20;;;9.00;99.90;;;;;;4992936;28;20049;-79
2022/04/06 01:56:48;;;;;;;33.17;15.85;;;9.00;99.90;;;;;;4993314;28;20054;-79
2022/04/06 01:59:13;;;;;;;29.90;15.80;;;9.00;99.90;;;;;;4992583;28;20046;-79
2022/04/06 02:01:39;;;;;;;29.42;15.57;;;8.90;99.90;;;;;;4992853;28;20494;-79
2022/04/06 02:04:13;;;;;;;29.40;15.60;;;9.00;99.90;;;;;;4991702;28;20034;-79
2022/04/06 02:06:39;;;;;;;28.25;14.68;;;9.00;99.90;;;;;;4993036;28;20436;-79
2022/04/06 02:09:05;;;;;;;28.90;14.48;;;9.00;99.90;;;;;;4976101;28;20038;-79
2022/04/06 02:11:31;;;;;;;27.80;13.77;;;9.00;99.90;;;;;;4992632;28;20073;-79
2022/04/06 02:13:57;;;;;;;28.50;14.27;;;9.00;99.90;;;;;;4976755;28;20047;-79
2022/04/06 02:16:23;;;;;;;25.20;13.52;;;9.00;99.90;;;;;;4992465;28;20540;-79
2022/04/06 02:18:50;;;;;;;25.40;12.82;;;9.00;99.90;;;;;;4944037;28;20062;-79
2022/04/06 02:21:15;;;;;;;28.33;12.40;;;9.00;99.90;;;;;;4976940;28;20118;-79
2022/04/06 02:23:41;;;;;;;26.30;12.60;;;9.00;99.90;;;;;;4960606;28;20451;-79
2022/04/06 02:26:07;;;;;;;30.95;12.80;;;9.00;99.90;;;;;;4977379;28;20043;-79
2022/04/06 02:28:32;;;;;;;29.27;12.77;;;9.00;99.90;;;;;;4976835;28;20035;-79
2022/04/06 02:30:58;;;;;;;28.85;13.13;;;9.00;99.90;;;;;;4961089;28;20469;-79
2022/04/06 02:33:24;;;;;;;27.45;13.18;;;9.00;99.90;;;;;;4975694;28;20410;-79
2022/04/06 02:35:49;;;;;;;27.73;12.45;;;9.00;99.90;;;;;;4960943;28;20144;-79
2022/04/06 02:38:15;;;;;;;23.80;11.20;;;9.00;99.90;;;;;;4976394;28;20108;-79
2022/04/06 02:40:41;;;;;;;22.98;10.43;;;9.00;99.90;;;;;;4982670;28;20050;-79
2022/04/06 02:43:06;;;;;;;26.77;10.75;;;9.00;99.90;;;;;;4972776;28;20043;-79
2022/04/06 02:45:32;;;;;;;23.90;11.07;;;9.00;99.90;;;;;;4960592;28;20502;-79
2022/04/06 02:47:58;;;;;;;24.23;10.32;;;8.90;99.90;;;;;;4973900;28;20058;-79
2022/04/06 02:50:23;;;;;;;21.85;9.85;;;8.90;99.90;;;;;;4959183;28;20050;-79
2022/04/06 02:52:49;;;;;;;22.75;10.65;;;9.00;99.90;;;;;;4974961;28;20055;-79
2022/04/06 02:55:15;;;;;;;24.15;9.82;;;9.00;99.90;;;;;;4991473;28;20054;-79
2022/04/06 02:57:42;;;;;;;26.00;9.45;;;8.90;99.90;;;;;;4958643;28;20118;-79
2022/04/06 03:00:08;;;;;;;24.88;9.63;;;9.00;99.90;;;;;;4975061;28;20054;-79
2022/04/06 03:02:35;;;;;;;24.27;9.85;;;9.00;99.90;;;;;;4974166;28;20129;-79
2022/04/06 03:05:01;;;;;;;21.17;9.23;;;9.00;99.90;;;;;;4974853;28;20046;-79
2022/04/06 03:07:26;;;;;;;19.65;9.18;;;9.10;99.90;;;;;;4974824;28;20045;-79
2022/04/06 03:09:52;;;;;;;27.40;10.65;;;9.10;99.90;;;;;;4975402;28;20042;-79
2022/04/06 03:12:18;;;;;;;24.45;10.30;;;9.10;99.90;;;;;;4975037;28;20082;-79
2022/04/06 03:14:44;;;;;;;25.00;9.90;;;9.00;99.90;;;;;;4959072;28;20054;-79
2022/04/06 03:17:09;;;;;;;25.58;10.65;;;9.00;99.90;;;;;;4981594;28;20050;-79
2022/04/06 03:19:35;;;;;;;24.02;10.13;;;9.00;99.90;;;;;;4993479;28;20076;-79
2022/04/06 03:22:02;;;;;;;23.52;9.25;;;9.00;99.90;;;;;;4993668;28;20046;-79
2022/04/06 03:24:28;;;;;;;25.65;11.00;;;9.00;99.90;;;;;;4977734;28;20049;-79
2022/04/06 03:26:54;;;;;;;27.85;11.25;;;9.00;99.90;;;;;;4977985;28;20485;-79
2022/04/06 03:29:19;;;;;;;26.77;11.30;;;9.00;99.90;;;;;;4993645;28;20129;-79
2022/04/06 03:31:45;;;;;;;29.50;12.07;;;9.10;99.90;;;;;;4994337;28;20049;-79
2022/04/06 03:34:11;;;;;;;29.13;12.18;;;9.10;99.90;;;;;;4992906;28;20132;-79
2022/04/06 03:36:36;;;;;;;28.95;11.75;;;9.10;99.90;;;;;;4994164;28;20490;-79
2022/04/06 03:39:02;;;;;;;27.75;12.60;;;9.00;99.90;;;;;;4977793;28;20042;-79
2022/04/06 03:41:28;;;;;;;27.23;12.88;;;9.00;99.90;;;;;;4977656;28;20046;-79
2022/04/06 03:43:53;;;;;;;29.38;13.27;;;9.10;99.90;;;;;;4993833;28;20129;-79
2022/04/06 03:46:19;;;;;;;28.45;13.38;;;9.00;99.90;;;;;;4939347;28;1124073;-79
2022/04/06 03:48:45;;;;;;;30.25;14.07;;;9.10;99.90;;;;;;4977781;28;20039;-79
2022/04/06 03:51:10;;;;;;;32.65;14.23;;;9.10;99.90;;;;;;4984180;28;20050;-79
2022/04/06 03:53:36;;;;;;;33.25;14.50;;;9.10;99.90;;;;;;4994472;28;20105;-79
2022/04/06 03:56:02;;;;;;;29.90;14.85;;;9.60;99.90;;;;;;4981389;28;20093;-79
2022/04/06 03:58:29;;;;;;;30.50;15.23;;;9.10;99.90;;;;;;4958938;28;20079;-79
2022/04/06 04:00:55;;;;;;;28.85;14.90;;;9.00;99.90;;;;;;4975558;28;20409;-79
2022/04/06 04:03:20;;;;;;;32.72;15.88;;;9.10;99.90;;;;;;4974613;28;20038;-79
2022/04/06 04:05:46;;;;;;;29.60;15.70;;;9.10;99.90;;;;;;4975175;28;20035;-79
2022/04/06 04:08:11;;;;;;;36.63;16.90;;;9.10;99.90;;;;;;4958622;28;20071;-79
2022/04/06 04:10:37;;;;;;;28.55;15.75;;;9.10;99.90;;;;;;4975176;28;20572;-79
2022/04/06 04:13:03;;;;;;;30.10;16.63;;;9.10;99.90;;;;;;4989284;28;20129;-79
2022/04/06 04:15:31;;;;;;;31.35;15.45;;;9.10;99.90;;;;;;4978459;28;20046;-79
2022/04/06 04:17:57;;;;;;;31.60;14.75;;;9.20;99.90;;;;;;4988688;28;20050;-79
2022/04/06 04:20:23;;;;;;;29.05;14.70;;;9.20;99.90;;;;;;4974656;28;20038;-79
2022/04/06 04:22:48;;;;;;;31.25;14.73;;;9.20;99.90;;;;;;4970374;28;20101;-79
2022/04/06 04:25:14;;;;;;;30.85;14.77;;;9.20;99.90;;;;;;4993863;28;20070;-79
2022/04/06 04:27:40;;;;;;;30.05;14.98;;;9.20;99.90;;;;;;4977567;28;20072;-79
2022/04/06 04:30:07;;;;;;;25.23;13.77;;;9.20;99.90;;;;;;4994171;28;20038;-79
2022/04/06 04:32:33;;;;;;;22.50;11.50;;;9.20;99.90;;;;;;4974969;28;20081;-79
2022/04/06 04:35:00;;;;;;;29.23;12.98;;;9.20;99.90;;;;;;4993897;28;20038;-79
2022/04/06 04:37:26;;;;;;;28.55;13.20;;;9.20;99.90;;;;;;4962046;28;20038;-79
2022/04/06 04:39:51;;;;;;;25.65;12.77;;;9.30;99.90;;;;;;4981958;28;20177;-79
2022/04/06 04:42:17;;;;;;;26.02;12.52;;;9.20;99.90;;;;;;4958244;28;20039;-79
2022/04/06 04:44:43;;;;;;;26.42;12.85;;;9.20;99.90;;;;;;4958128;28;20035;-79
2022/04/06 04:47:09;;;;;;;27.40;12.95;;;9.20;99.90;;;;;;4957696;28;20414;-79
2022/04/06 04:49:34;;;;;;;25.30;12.13;;;9.20;99.90;;;;;;4974106;28;20089;-79
2022/04/06 04:52:00;;;;;;;27.02;12.70;;;9.20;99.90;;;;;;4974412;28;20530;-79
2022/04/06 04:54:26;;;;;;;25.13;11.55;;;9.20;99.90;;;;;;4958625;28;20442;-79
2022/04/06 04:56:52;;;;;;;29.77;11.80;;;9.20;99.90;;;;;;4974411;28;20039;-79
2022/04/06 04:59:18;;;;;;;26.15;11.70;;;9.20;99.90;;;;;;4974085;28;20090;-79
2022/04/06 05:01:44;;;;;;;22.77;11.40;;;9.20;99.90;;;;;;4974532;28;20045;-79
2022/04/06 05:04:10;;;;;;;22.58;10.73;;;9.10;99.90;;;;;;4957039;28;20043;-79
2022/04/06 05:06:37;;;;;;;23.88;10.70;;;9.10;99.90;;;;;;4957816;28;20398;-79
2022/04/06 05:09:03;;;;;;;25.92;11.27;;;9.30;99.90;;;;;;4967077;28;20042;-78
2022/04/06 05:11:28;;;;;;;24.15;11.32;;;9.20;99.90;;;;;;4968446;28;20061;-79
2022/04/06 05:13:54;;;;;;;20.92;10.35;;;9.10;99.90;;;;;;4975891;28;20132;-81
2022/04/06 05:16:20;;;;;;;24.25;10.60;;;9.50;99.90;;;;;;4969693;28;20052;-81
2022/04/06 05:18:45;;;;;;;22.05;10.32;;;9.20;99.90;;;;;;4974559;28;20097;-79
2022/04/06 05:21:11;;;;;;;21.08;10.05;;;9.20;99.90;;;;;;4957273;28;20042;-79
2022/04/06 05:23:37;;;;;;;21.38;10.60;;;9.10;99.90;;;;;;4980205;28;20390;-78
2022/04/06 05:26:03;;;;;;;22.23;11.05;;;9.10;99.90;;;;;;4977083;28;20038;-78
2022/04/06 05:28:29;;;;;;;22.27;9.80;;;9.10;99.90;;;;;;4993351;28;20034;-78
2022/04/06 05:30:54;;;;;;;20.10;9.98;;;9.20;99.90;;;;;;4977241;28;20081;-78
2022/04/06 05:33:20;;;;;;;22.55;9.73;;;9.10;99.90;;;;;;4992316;28;20486;-78
2022/04/06 05:35:46;;;;;;;22.20;9.68;;;9.10;99.90;;;;;;4983578;28;20475;-78
2022/04/06 05:38:12;;;;;;;23.25;9.63;;;9.10;99.90;;;;;;4989188;28;20038;-79
2022/04/06 05:40:38;;;;;;;23.60;10.00;;;9.10;99.90;;;;;;4957226;28;20039;-78
2022/04/06 05:43:04;;;;;;;26.40;9.75;;;9.10;99.90;;;;;;4973355;28;20058;-79
2022/04/06 05:45:30;;;;;;;25.05;10.07;;;9.10;99.90;;;;;;4973361;28;20042;-78
2022/04/06 05:47:56;;;;;;;19.85;8.70;;;9.10;99.90;;;;;;4972100;28;20568;-78
2022/04/06 05:50:22;;;;;;;21.10;9.35;;;9.10;99.90;;;;;;4973283;28;20129;-78
2022/04/06 05:52:48;;;;;;;21.25;9.07;;;9.10;99.90;;;;;;4971712;28;20084;-78
2022/04/06 05:55:14;;;;;;;19.90;8.52;;;9.10;99.90;;;;;;4992558;28;20046;-78
2022/04/06 05:57:40;;;;;;;17.20;7.60;;;9.10;99.90;;;;;;4976180;28;20043;-78
2022/04/06 06:00:08;;;;;;;18.88;7.65;;;9.10;99.90;;;;;;4975642;28;20042;-78
2022/04/06 06:02:36;;;;;;;18.20;8.27;;;9.20;99.90;;;;;;4971651;28;20074;-78
2022/04/06 06:05:02;;;;;;;19.85;8.07;;;9.10;99.90;;;;;;4975094;28;20505;-78
2022/04/06 06:07:28;;;;;;;16.17;7.60;;;9.10;99.90;;;;;;4972276;28;20121;-78
2022/04/06 06:09:53;;;;;;;16.20;7.40;;;9.20;99.90;;;;;;4963546;28;20078;-79
2022/04/06 06:12:19;;;;;;;17.52;6.68;;;9.20;99.90;;;;;;4992455;28;20070;-80
2022/04/06 06:14:45;;;;;;;15.38;6.63;;;9.20;99.90;;;;;;4976389;28;20046;-80
2022/04/06 06:17:10;;;;;;;15.57;6.38;;;9.20;99.90;;;;;;5008704;28;20050;-79
2022/04/06 06:19:36;;;;;;;16.48;6.30;;;9.20;99.90;;;;;;5008397;28;20039;-79
2022/04/06 06:22:02;;;;;;;14.50;5.95;;;9.20;99.90;;;;;;4982606;28;20038;-78
2022/04/06 06:24:28;;;;;;;14.43;5.47;;;9.20;99.90;;;;;;4941025;28;20105;-78
2022/04/06 06:26:54;;;;;;;13.73;5.18;;;9.20;99.90;;;;;;4965063;28;20044;-78
2022/04/06 06:29:20;;;;;;;10.73;4.35;;;9.30;99.90;;;;;;4955461;28;20108;-78
2022/04/06 06:31:46;;;;;;;14.80;5.05;;;9.40;99.90;;;;;;4988486;28;20042;-78
2022/04/06 06:34:12;;;;;;;13.02;5.10;;;9.30;99.90;;;;;;4985803;28;20101;-78
2022/04/06 06:36:37;;;;;;;12.90;4.78;;;9.30;99.90;;;;;;4955231;28;20039;-78
2022/04/06 06:39:03;;;;;;;12.63;4.35;;;9.30;99.90;;;;;;4972168;28;20039;-78
2022/04/06 06:41:29;;;;;;;14.07;4.20;;;9.40;99.90;;;;;;4967156;28;20045;-78
2022/04/06 06:43:56;;;;;;;10.55;3.72;;;9.40;99.90;;;;;;4980701;28;20074;-78
2022/04/06 06:46:23;;;;;;;14.27;4.35;;;9.40;99.90;;;;;;4970127;28;20050;-82
2022/04/06 06:48:50;;;;;;;10.48;4.20;;;9.40;99.90;;;;;;4972931;28;20507;-80
2022/04/06 06:51:17;;;;;;;13.98;4.40;;;9.30;99.90;;;;;;4975508;28;20038;-78
2022/04/06 06:53:43;;;;;;;11.88;3.92;;;9.30;99.90;;;;;;4975634;28;20118;-78
2022/04/06 06:56:09;;;;;;;11.70;4.00;;;9.20;99.90;;;;;;4970872;28;20185;-78
2022/04/06 06:58:35;;;;;;;14.57;4.18;;;9.30;99.90;;;;;;4976447;28;20043;-78
2022/04/06 07:01:00;;;;;;;13.60;4.00;;;9.30;99.90;;;;;;4982555;28;20049;-78
2022/04/06 07:03:27;;;;;;;12.25;3.92;;;9.30;99.90;;;;;;4971326;28;20046;-78
2022/04/06 07:05:52;;;;;;;11.15;3.92;;;9.20;99.90;;;;;;4978005;28;20127;-78
2022/04/06 07:08:18;;;;;;;13.48;3.90;;;9.20;99.90;;;;;;4992041;28;20077;-78
2022/04/06 07:10:45;;;;;;;13.80;4.00;;;9.20;99.90;;;;;;4966963;28;20043;-79
2022/04/06 07:13:16;;;;;;;14.45;3.72;;;9.20;99.90;;;;;;4986650;28;20042;-79
2022/04/06 07:15:42;;;;;;;11.40;3.40;;;9.20;99.90;;;;;;4983984;28;20039;-78
2022/04/06 07:18:09;;;;;;;10.90;3.33;;;9.20;99.90;;;;;;4990132;28;20038;-78
2022/04/06 07:20:36;;;;;;;11.18;3.70;;;9.30;99.90;;;;;;4977003;28;20101;-78
2022/04/06 07:23:02;;;;;;;12.98;3.75;;;9.30;99.90;;;;;;4981059;28;20039;-78
2022/04/06 07:25:28;;;;;;;13.30;3.58;;;9.20;99.90;;;;;;4957775;28;20502;-77
2022/04/06 07:27:54;;;;;;;12.05;3.42;;;9.20;99.90;;;;;;4989127;28;20035;-77
2022/04/06 07:30:20;;;;;;;13.65;3.72;;;9.30;99.90;;;;;;4973715;28;20580;-77
2022/04/06 07:32:45;;;;;;;12.55;3.63;;;9.30;99.90;;;;;;4983814;28;20042;-77
2022/04/06 07:35:11;;;;;;;11.85;3.47;;;9.30;99.90;;;;;;4981183;28;20046;-77
2022/04/06 07:37:42;;;;;;;14.18;3.67;;;9.30;99.90;;;;;;4975723;28;20121;-77
2022/04/06 07:40:09;;;;;;;12.82;3.63;;;9.30;99.90;;;;;;4979649;28;20039;-77
2022/04/06 07:42:36;;;;;;;13.63;3.80;;;9.40;99.90;;;;;;4983814;28;20034;-77
2022/04/06 07:45:07;;;;;;;10.95;3.85;;;9.30;99.90;;;;;;4980774;28;20069;-77
2022/04/06 07:47:34;;;;;;;12.73;4.38;;;9.30;99.90;;;;;;4966650;28;20064;-77
2022/04/06 07:50:03;;;;;;;12.50;4.38;;;9.30;99.90;;;;;;4966702;28;20501;-77
2022/04/06 07:52:30;;;;;;;16.17;5.00;;;9.20;99.90;;;;;;4989669;28;20077;-77
2022/04/06 07:54:56;;;;;;;11.05;4.50;;;9.30;99.90;;;;;;4986260;28;20536;-77
2022/04/06 07:57:26;;;;;;;15.02;4.72;;;9.40;99.90;;;;;;4984802;28;20121;-77
2022/04/06 07:59:53;;;;;;;12.40;5.43;;;9.30;99.90;;;;;;4989393;28;20042;-77
2022/04/06 08:02:19;;;;;;;13.90;4.88;;;9.30;99.90;;;;;;4972456;28;20086;-77
2022/04/06 08:04:45;;;;;;;14.70;5.55;;;9.40;99.90;;;;;;4956365;28;20465;-77
2022/04/06 08:07:11;;;;;;;15.82;5.80;;;9.30;99.90;;;;;;4997491;28;20103;-77
2022/04/06 08:09:36;;;;;;;13.07;5.32;;;9.40;99.90;;;;;;5001311;28;20038;-78
2022/04/06 08:12:03;;;;;;;13.98;5.60;;;9.40;99.90;;;;;;4995281;28;20049;-77
2022/04/06 08:14:29;;;;;;;14.32;6.45;;;9.40;99.90;;;;;;5005133;28;20137;-77
2022/04/06 08:16:55;;;;;;;13.60;6.22;;;9.40;99.90;;;;;;4984459;28;20513;-77
2022/04/06 08:19:26;;;;;;;14.85;6.32;;;9.40;99.90;;;;;;4974924;28;20402;-78
2022/04/06 08:21:53;;;;;;;13.63;6.85;;;9.60;99.90;;;;;;4991470;28;20045;-78
2022/04/06 08:24:19;;;;;;;15.52;6.60;;;9.60;99.90;;;;;;4968031;28;20047;-77
2022/04/06 08:26:46;;;;;;;15.35;7.13;;;9.60;99.90;;;;;;4992730;28;20038;-77
2022/04/06 08:29:12;;;;;;;15.40;7.50;;;9.70;99.90;;;;;;4999917;28;20072;-76
2022/04/06 08:31:38;;;;;;;13.07;7.47;;;9.70;99.90;;;;;;4992736;28;20477;-76
2022/04/06 08:34:05;;;;;;;15.30;7.57;;;9.50;99.90;;;;;;4959769;28;20490;-77
2022/04/06 08:36:32;;;;;;;16.83;8.00;;;9.50;99.90;;;;;;4979683;28;20157;-77
2022/04/06 08:38:59;;;;;;;16.73;7.97;;;9.60;99.90;;;;;;4968918;28;20037;-77
2022/04/06 08:41:26;;;;;;;17.33;8.32;;;9.70;99.90;;;;;;4974762;28;20043;-76
2022/04/06 08:43:53;;;;;;;19.42;8.52;;;9.70;99.90;;;;;;4981712;28;20061;-76
2022/04/06 08:46:20;;;;;;;18.45;9.40;;;9.70;99.90;;;;;;4979734;28;20054;-76
2022/04/06 08:48:51;;;;;;;19.55;9.57;;;9.80;99.90;;;;;;4977875;28;20085;-76
2022/04/06 08:51:17;;;;;;;18.03;9.50;;;9.90;99.90;;;;;;4963975;28;20047;-76
2022/04/06 08:53:45;;;;;;;18.25;9.38;;;9.90;99.90;;;;;;4980972;28;20098;-77
2022/04/06 08:56:12;;;;;;;20.33;9.70;;;10.00;99.90;;;;;;4983123;28;20043;-77
2022/04/06 08:58:39;;;;;;;20.33;9.85;;;10.00;99.90;;;;;;4978259;28;20045;-77
2022/04/06 09:01:05;;;;;;;20.98;10.23;;;10.00;99.90;;;;;;4976754;28;20081;-77
2022/04/06 09:03:30;;;;;;;19.65;9.80;;;10.00;99.90;;;;;;4964939;28;20296;-77
2022/04/06 09:06:06;;;;;;;19.05;9.23;;;9.80;99.90;;;;;;4965670;28;20096;-77
2022/04/06 09:08:39;;;;;;;19.05;9.57;;;9.90;99.90;;;;;;4981431;28;20097;-77
2022/04/06 09:11:14;;;;;;;16.65;7.95;;;9.90;99.90;;;;;;4984715;28;20050;-77
2022/04/06 09:13:42;;;;;;;19.50;8.95;;;9.90;99.90;;;;;;4983065;28;20327;-77
2022/04/06 09:16:15;;;;;;;17.10;8.55;;;10.00;99.90;;;;;;4981330;28;20129;-77
2022/04/06 09:18:44;;;;;;;14.82;7.80;;;9.90;99.90;;;;;;4989055;28;20134;-77
2022/04/06 09:21:12;;;;;;;16.40;7.53;;;9.90;99.90;;;;;;4975493;28;20075;-77
2022/04/06 09:23:38;;;;;;;18.27;7.35;;;9.90;99.90;;;;;;4979202;28;20034;-77
2022/04/06 09:26:11;;;;;;;18.52;7.20;;;9.90;99.90;;;;;;4983654;28;20563;-77
2022/04/06 09:28:41;;;;;;;15.45;6.90;;;9.80;99.90;;;;;;4975981;28;20367;-77
2022/04/06 09:31:08;;;;;;;14.25;6.47;;;9.70;99.90;;;;;;4982018;28;20038;-77
2022/04/06 09:33:39;;;;;;;15.25;7.03;;;9.70;99.90;;;;;;4958178;28;20038;-78
2022/04/06 09:36:27;;;;;;;14.73;6.57;;;9.80;99.90;;;;;;4975092;28;20142;-77
2022/04/06 09:38:53;;;;;;;14.43;6.95;;;9.80;99.90;;;;;;4976804;28;20042;-79
2022/04/06 09:41:19;;;;;;;13.85;6.63;;;9.90;99.90;;;;;;4980127;28;20108;-78
2022/04/06 09:43:46;;;;;;;12.70;5.93;;;10.10;99.90;;;;;;4970642;28;20039;-77
2022/04/06 09:49:08;;;;;;;11.93;5.45;;;10.20;99.90;;;;;;4977467;28;20424;-77
2022/04/06 09:51:35;;;;;;;13.40;4.65;;;10.40;99.90;;;;;;4986977;28;20523;-77
2022/04/06 09:54:03;;;;;;;11.77;4.53;;;10.40;99.90;;;;;;4963268;28;20065;-78
2022/04/06 09:56:31;;;;;;;11.43;4.53;;;10.50;99.90;;;;;;4984187;28;20034;-77
2022/04/06 09:58:57;;;;;;;8.40;3.85;;;10.50;99.90;;;;;;4986082;28;20041;-77
2022/04/06 10:01:35;;;;;;;11.32;4.68;;;10.40;99.90;;;;;;4985113;28;20104;-77
2022/04/06 10:04:12;;;;;;;14.30;4.57;;;10.30;99.90;;;;;;4998213;28;20069;-76
2022/04/06 10:06:39;;;;;;;10.77;4.15;;;10.30;99.90;;;;;;4965736;28;20043;-77
2022/04/06 10:09:10;;;;;;;12.77;4.70;;;10.20;99.90;;;;;;4980463;28;20079;-77
2022/04/06 10:11:38;;;;;;;10.00;4.18;;;10.20;99.90;;;;;;4981881;28;20046;-78
2022/04/06 10:14:05;;;;;;;11.65;4.07;;;10.20;99.90;;;;;;4963461;28;20074;-78
2022/04/06 10:16:36;;;;;;;11.02;4.43;;;10.20;99.90;;;;;;4982482;28;20051;-77
2022/04/06 10:19:03;;;;;;;10.27;4.82;;;10.30;99.90;;;;;;4982936;28;20043;-76
2022/04/06 10:21:43;;;;;;;12.43;5.13;;;10.20;99.90;;;;;;4989754;28;20042;-78
2022/04/06 10:24:22;;;;;;;11.68;4.80;;;10.30;99.90;;;;;;4980262;28;20077;-78
2022/04/06 10:27:11;;;;;;;12.48;5.10;;;10.30;99.90;;;;;;4963820;28;20046;-77
2022/04/06 10:30:08;;;;;;;11.20;5.72;;;10.30;99.90;;;;;;4983854;28;20057;-77
2022/04/06 10:32:41;;;;;;;12.93;5.55;;;10.30;99.90;;;;;;4990997;28;20511;-77
2022/04/06 10:35:19;;;;;;;13.75;5.40;;;10.40;99.90;;;;;;4995819;28;20081;-77
2022/04/06 10:38:08;;;;;;;14.07;5.63;;;10.40;99.90;;;;;;4996912;28;20045;-77
2022/04/06 10:40:46;;;;;;;11.95;5.68;;;10.50;99.90;;;;;;4978356;28;20070;-77
2022/04/06 10:43:38;;;;;;;12.15;5.18;;;10.50;99.90;;;;;;4981698;28;20050;-76
2022/04/06 10:46:08;;;;;;;10.55;5.65;;;10.60;99.90;;;;;;4975057;28;20042;-76
2022/04/06 10:48:35;;;;;;;12.98;5.30;;;10.50;99.90;;;;;;4985943;28;20541;-76
2022/04/06 10:51:26;;;;;;;13.60;5.78;;;10.50;99.90;;;;;;4968566;28;20116;-76
2022/04/06 10:53:51;;;;;;;19.20;6.22;;;10.50;99.90;;;;;;4979307;28;20093;-76
2022/04/06 10:56:17;;;;;;;13.73;5.72;;;10.50;99.90;;;;;;4989429;28;20506;-76
2022/04/06 10:58:55;;;;;;;13.45;5.95;;;10.50;99.90;;;;;;4981728;28;20149;-76
2022/04/06 11:01:31;;;;;;;12.73;5.85;;;10.50;99.90;;;;;;4986757;28;20129;-76
2022/04/06 11:04:22;;;;;;;12.50;5.80;;;10.40;99.90;;;;;;4981382;28;20552;-76
2022/04/06 11:06:56;;;;;;;15.07;6.45;;;10.50;99.90;;;;;;4979329;28;20482;-76
2022/04/06 11:12:18;;;;;;;14.18;7.40;;;10.40;99.90;;;;;;4973166;28;20049;-76
2022/04/06 11:14:47;;;;;;;15.43;6.95;;;10.30;99.90;;;;;;4980357;28;20038;-76
2022/04/06 11:17:34;;;;;;;13.50;7.82;;;10.30;99.90;;;;;;4980015;28;20046;-76
2022/04/06 11:20:01;;;;;;;13.00;7.82;;;10.20;99.90;;;;;;4969433;28;20042;-76
2022/04/06 11:22:27;;;;;;;13.88;8.07;;;10.20;99.90;;;;;;4963422;28;20102;-76
2022/04/06 11:24:55;;;;;;;19.23;8.40;;;10.20;99.90;;;;;;4981778;28;20074;-76
2022/04/06 11:27:34;;;;;;;16.30;8.80;;;10.20;99.90;;;;;;4996669;28;20042;-76
2022/04/06 11:30:14;;;;;;;15.88;8.98;;;10.10;99.90;;;;;;4972828;28;20042;-76
2022/04/06 11:32:45;;;;;;;17.92;11.05;;;10.20;99.90;;;;;;4982069;28;20703;-76
2022/04/06 11:35:12;;;;;;;17.92;9.45;;;10.20;99.90;;;;;;4979729;28;20042;-76
2022/04/06 11:37:43;;;;;;;15.70;9.82;;;10.30;99.90;;;;;;4982690;28;20053;-76
2022/04/06 11:40:10;;;;;;;15.48;9.98;;;10.30;99.90;;;;;;4982129;28;20092;-76
2022/04/06 11:42:36;;;;;;;17.23;11.13;;;10.30;99.90;;;;;;4981390;28;20057;-76
2022/04/06 11:45:02;;;;;;;16.48;10.40;;;10.20;99.90;;;;;;4983159;28;20043;-76
2022/04/06 11:47:36;;;;;;;16.90;10.52;;;10.20;99.90;;;;;;4976139;28;20069;-76
2022/04/06 11:50:10;;;;;;;15.82;10.32;;;10.20;99.90;;;;;;4976046;28;20402;-76
2022/04/06 11:52:40;;;;;;;15.18;11.00;;;10.30;99.90;;;;;;4976497;28;20046;-76
2022/04/06 11:55:07;;;;;;;17.80;9.77;;;10.30;99.90;;;;;;4974133;28;20050;-76
2022/04/06 11:57:45;;;;;;;17.75;10.35;;;10.40;99.90;;;;;;4974177;28;20117;-76
2022/04/06 12:00:13;;;;;;;16.63;9.48;;;10.50;99.90;;;;;;4972781;28;20050;-76
2022/04/06 12:02:55;;;;;;;15.88;9.90;;;10.50;99.90;;;;;;4977084;28;20169;-76
2022/04/06 12:05:24;;;;;;;15.52;8.48;;;10.60;99.90;;;;;;4967362;28;20047;-76
2022/04/06 12:08:16;;;;;;;16.58;9.65;;;10.70;99.90;;;;;;4977750;28;20084;-76
2022/04/06 12:10:49;;;;;;;14.93;8.35;;;10.70;99.90;;;;;;4971423;28;20050;-76
2022/04/06 12:13:16;;;;;;;13.63;8.30;;;10.70;99.90;;;;;;4976646;28;20498;-76
2022/04/06 12:15:43;;;;;;;13.27;9.55;;;10.80;99.90;;;;;;4980187;28;20050;-77
2022/04/06 12:18:08;;;;;;;14.00;8.55;;;10.80;99.90;;;;;;4975932;28;20097;-75
2022/04/06 12:20:34;;;;;;;13.18;8.20;;;10.80;99.90;;;;;;4978315;28;20039;-76
2022/04/06 12:23:08;;;;;;;13.75;8.80;;;10.90;99.90;;;;;;4982603;28;20077;-76
2022/04/06 12:25:35;;;;;;;12.75;8.07;;;10.90;99.90;;;;;;4990164;28;20043;-76
2022/04/06 12:28:21;;;;;;;15.35;8.90;;;11.00;99.90;;;;;;4957943;28;20062;-76
2022/04/06 12:31:01;;;;;;;11.13;8.27;;;11.20;99.90;;;;;;4978763;28;20403;-76
2022/04/06 12:33:37;;;;;;;11.82;7.93;;;11.30;99.90;;;;;;4973199;28;20499;-76
2022/04/06 12:36:19;;;;;;;14.98;9.52;;;11.20;99.90;;;;;;4972473;28;20085;-76
2022/04/06 12:39:02;;;;;;;12.32;8.45;;;11.30;99.90;;;;;;4974454;28;20035;-76
2022/04/06 12:41:32;;;;;;;13.20;9.30;;;11.30;99.90;;;;;;4972824;28;20053;-76
2022/04/06 12:44:00;;;;;;;13.88;9.35;;;11.20;99.90;;;;;;4972769;28;20035;-76
2022/04/06 12:46:58;;;;;;;13.45;8.57;;;11.10;99.90;;;;;;4964917;28;20109;-76
2022/04/06 12:49:41;;;;;;;12.93;8.82;;;11.10;99.90;;;;;;4963435;28;20430;-76
2022/04/06 12:52:25;;;;;;;13.77;9.25;;;11.00;99.90;;;;;;5008902;28;20078;-76
2022/04/06 12:55:00;;;;;;;14.45;9.88;;;10.90;99.90;;;;;;4986789;28;20093;-76
2022/04/06 12:57:25;;;;;;;13.98;9.23;;;10.90;99.90;;;;;;4979847;28;20609;-76
2022/04/06 12:59:56;;;;;;;13.90;9.05;;;10.80;99.90;;;;;;4971279;28;20050;-76